createdAt,value
2019-04-05T00:02:22.410Z,4.60
2019-04-05T00:04:50.680Z,4.90
2019-04-05T00:07:18.931Z,4.57
2019-04-05T00:09:47.207Z,5.53
2019-04-05T00:12:15.459Z,5.47
2019-04-05T00:14:43.733Z,6.27
2019-04-05T00:17:11.994Z,6.03
2019-04-05T00:19:40.330Z,6.13
2019-04-05T00:22:08.578Z,5.67
2019-04-05T00:24:36.858Z,7.67
2019-04-05T00:27:05.167Z,6.60
2019-04-05T00:29:33.442Z,6.00
2019-04-05T00:32:01.747Z,6.83
2019-04-05T00:34:30.017Z,7.07
2019-04-05T00:36:58.262Z,7.07
2019-04-05T00:39:26.553Z,7.20
2019-04-05T00:41:54.816Z,8.37
2019-04-05T00:44:23.095Z,8.97
2019-04-05T00:46:51.341Z,5.67
2019-04-05T00:49:19.616Z,9.07
2019-04-05T00:51:47.894Z,8.23
2019-04-05T00:54:16.168Z,7.87
2019-04-05T00:56:44.417Z,6.90
2019-04-05T00:59:12.805Z,6.27
2019-04-05T01:01:41.061Z,7.90
2019-04-05T01:04:09.404Z,6.63
2019-04-05T01:06:38.655Z,7.03
2019-04-05T01:09:07.840Z,8.97
2019-04-05T01:11:36.090Z,9.63
2019-04-05T01:14:04.362Z,10.13
2019-04-05T01:16:32.627Z,10.47
2019-04-05T01:19:03.871Z,9.87
2019-04-05T01:21:36.803Z,7.83
2019-04-05T01:24:05.040Z,9.07
2019-04-05T01:26:33.307Z,8.13
2019-04-05T01:29:02.577Z,7.73
2019-04-05T01:31:30.846Z,8.10
2019-04-05T01:33:59.098Z,7.63
2019-04-05T01:36:27.365Z,6.63
2019-04-05T01:38:55.619Z,7.73
2019-04-05T01:41:23.936Z,8.30
2019-04-05T01:43:52.211Z,7.87
2019-04-05T01:46:20.483Z,8.00
2019-04-05T01:48:48.721Z,7.47
2019-04-05T01:51:16.989Z,7.77
2019-04-05T01:53:45.307Z,7.97
2019-04-05T01:56:13.583Z,7.20
2019-04-05T01:58:41.825Z,5.00
2019-04-05T02:01:10.101Z,8.77
2019-04-05T02:03:38.349Z,7.00
2019-04-05T02:06:06.616Z,7.13
2019-04-05T02:08:34.882Z,7.22
2019-04-05T02:11:03.176Z,9.37
2019-04-05T02:13:31.430Z,8.03
2019-04-05T02:16:06.327Z,6.93
2019-04-05T02:18:30.359Z,7.33
2019-04-05T02:20:58.637Z,6.87
2019-04-05T02:23:26.885Z,7.03
2019-04-05T02:25:55.161Z,8.20
2019-04-05T02:28:25.487Z,9.10
2019-04-05T02:30:53.413Z,7.77
2019-04-05T02:33:21.668Z,8.53
2019-04-05T02:35:49.941Z,10.17
2019-04-05T02:38:18.197Z,9.07
2019-04-05T02:40:46.464Z,8.13
2019-04-05T02:43:14.712Z,9.33
2019-04-05T02:45:42.961Z,9.73
2019-04-05T02:48:11.235Z,9.60
2019-04-05T02:50:41.289Z,9.90
2019-04-05T02:53:09.575Z,10.47
2019-04-05T02:55:38.955Z,9.93
2019-04-05T02:58:07.251Z,6.30
2019-04-05T03:00:35.514Z,7.47
2019-04-05T03:03:04.182Z,6.97
2019-04-05T03:05:32.413Z,7.57
2019-04-05T03:08:00.706Z,7.80
2019-04-05T03:11:05.616Z,7.63
2019-04-05T03:13:36.059Z,11.33
2019-04-05T03:16:06.843Z,10.03
2019-04-05T03:18:38.756Z,9.85
2019-04-05T03:21:07.780Z,11.40
2019-04-05T03:23:39.279Z,13.53
2019-04-05T03:26:08.935Z,8.70
2019-04-05T03:28:37.987Z,10.33
2019-04-05T03:31:06.267Z,9.50
2019-04-05T03:33:34.586Z,12.97
2019-04-05T03:36:02.890Z,11.07
2019-04-05T03:38:31.373Z,11.47
2019-04-05T03:40:59.643Z,13.67
2019-04-05T03:43:27.904Z,10.23
2019-04-05T03:45:56.168Z,13.83
2019-04-05T03:48:24.446Z,13.97
2019-04-05T03:50:52.707Z,14.13
2019-04-05T03:53:21.065Z,12.43
2019-04-05T03:55:49.478Z,11.53
2019-04-05T03:58:17.763Z,13.43
2019-04-05T04:00:46.091Z,13.33
2019-04-05T04:03:14.388Z,18.23
2019-04-05T04:05:42.644Z,15.03
2019-04-05T04:08:10.932Z,12.10
2019-04-05T04:10:39.186Z,14.07
2019-04-05T04:13:07.554Z,12.07
2019-04-05T04:15:35.805Z,10.90
2019-04-05T04:18:04.074Z,10.90
2019-04-05T04:20:46.838Z,16.10
2019-04-05T04:23:15.122Z,14.30
2019-04-05T04:25:43.461Z,16.17
2019-04-05T04:28:11.758Z,14.30
2019-04-05T04:30:40.074Z,12.90
2019-04-05T04:33:16.709Z,13.00
2019-04-05T04:35:44.953Z,10.07
2019-04-05T04:38:13.236Z,14.17
2019-04-05T04:40:41.786Z,14.33
2019-04-05T04:43:10.608Z,16.73
2019-04-05T04:45:38.864Z,17.67
2019-04-05T04:48:07.160Z,16.97
2019-04-05T04:50:35.406Z,14.43
2019-04-05T04:53:03.680Z,13.20
2019-04-05T04:55:31.942Z,12.50
2019-04-05T04:58:00.211Z,14.60
2019-04-05T05:00:28.461Z,17.47
2019-04-05T05:02:56.736Z,18.03
2019-04-05T05:05:25.230Z,16.40
2019-04-05T05:07:53.578Z,21.73
2019-04-05T05:10:21.834Z,12.77
2019-04-05T05:12:50.142Z,12.63
2019-04-05T05:15:18.426Z,17.17
2019-04-05T05:17:58.089Z,13.33
2019-04-05T05:20:16.661Z,12.30
2019-04-05T05:22:44.914Z,12.47
2019-04-05T05:25:15.375Z,16.30
2019-04-05T05:27:43.585Z,13.03
2019-04-05T05:30:12.118Z,14.83
2019-04-05T05:32:40.433Z,13.07
2019-04-05T05:35:08.702Z,12.63
2019-04-05T05:37:36.956Z,14.53
2019-04-05T05:40:06.851Z,14.73
2019-04-05T05:42:35.099Z,14.17
2019-04-05T05:45:04.603Z,13.90
2019-04-05T05:47:32.844Z,13.63
2019-04-05T05:50:01.143Z,12.80
2019-04-05T05:52:29.478Z,12.90
2019-04-05T05:54:57.817Z,12.50
2019-04-05T05:57:26.425Z,12.87
2019-04-05T05:59:54.842Z,13.00
2019-04-05T06:02:23.104Z,12.47
2019-04-05T06:04:51.381Z,11.47
2019-04-05T06:07:20.198Z,13.10
2019-04-05T06:09:48.500Z,11.48
2019-04-05T06:12:16.751Z,11.77
2019-04-05T06:14:45.177Z,9.80
2019-04-05T06:17:14.256Z,11.55
2019-04-05T06:19:42.585Z,12.10
2019-04-05T06:22:10.851Z,11.73
2019-04-05T06:24:39.149Z,13.27
2019-04-05T06:27:07.503Z,11.63
2019-04-05T06:29:35.792Z,13.83
2019-04-05T06:32:04.148Z,13.07
2019-04-05T06:34:32.455Z,14.40
2019-04-05T06:37:00.716Z,12.57
2019-04-05T06:39:28.974Z,13.50
2019-04-05T06:41:57.350Z,14.70
2019-04-05T06:44:27.960Z,13.37
2019-04-05T06:46:57.275Z,15.93
2019-04-05T06:49:25.606Z,12.87
2019-04-05T06:51:53.882Z,15.83
2019-04-05T06:54:22.173Z,16.57
2019-04-05T06:56:50.462Z,16.37
2019-04-05T06:59:19.430Z,14.40
2019-04-05T07:01:47.955Z,12.37
2019-04-05T07:04:16.224Z,11.30
2019-04-05T07:06:44.518Z,24.37
2019-04-05T07:09:12.972Z,12.73
2019-04-05T07:11:41.290Z,12.93
2019-04-05T07:14:09.549Z,14.03
2019-04-05T07:16:37.817Z,15.60
2019-04-05T07:19:06.085Z,12.93
2019-04-05T07:21:34.479Z,15.47
2019-04-05T07:24:02.799Z,18.17
2019-04-05T07:26:31.089Z,16.23
2019-04-05T07:28:59.403Z,18.10
2019-04-05T07:31:27.745Z,14.43
2019-04-05T07:33:56.341Z,16.57
2019-04-05T07:36:24.831Z,15.03
2019-04-05T07:38:53.163Z,16.73
2019-04-05T07:41:21.471Z,14.57
2019-04-05T07:43:49.987Z,16.00
2019-04-05T07:46:18.341Z,16.63
2019-04-05T07:48:46.639Z,15.50
2019-04-05T07:51:14.931Z,17.87
2019-04-05T07:53:44.699Z,16.10
2019-04-05T07:56:12.974Z,15.10
2019-04-05T07:58:41.231Z,15.53
2019-04-05T08:01:09.583Z,13.03
2019-04-05T08:03:37.914Z,16.67
2019-04-05T08:06:06.188Z,17.03
2019-04-05T08:08:43.609Z,18.07
2019-04-05T08:11:11.907Z,16.03
2019-04-05T08:13:40.806Z,11.70
2019-04-05T08:16:09.097Z,15.55
2019-04-05T08:18:37.362Z,11.40
2019-04-05T08:21:05.623Z,12.53
2019-04-05T08:23:33.981Z,12.00
2019-04-05T08:26:02.321Z,11.13
2019-04-05T08:28:30.668Z,11.23
2019-04-05T08:30:58.998Z,12.70
2019-04-05T08:33:33.065Z,15.10
2019-04-05T08:36:01.312Z,12.53
2019-04-05T08:38:29.598Z,11.93
2019-04-05T08:40:57.851Z,14.03
2019-04-05T08:43:26.195Z,15.30
2019-04-05T08:45:56.523Z,15.47
2019-04-05T08:48:25.002Z,14.40
2019-04-05T08:50:53.271Z,12.00
2019-04-05T08:53:21.626Z,10.77
2019-04-05T08:55:50.000Z,13.57
2019-04-05T08:58:18.363Z,14.87
2019-04-05T09:00:46.769Z,11.43
2019-04-05T09:03:15.052Z,12.87
2019-04-05T09:05:43.379Z,10.13
2019-04-05T09:08:11.698Z,11.50
2019-04-05T09:10:39.960Z,10.40
2019-04-05T09:13:08.447Z,11.12
2019-04-05T09:15:36.704Z,11.57
2019-04-05T09:18:04.973Z,9.97
2019-04-05T09:20:33.204Z,8.50
2019-04-05T09:23:01.563Z,8.83
2019-04-05T09:25:29.810Z,6.60
2019-04-05T09:27:58.101Z,6.30
2019-04-05T09:30:26.346Z,6.53
2019-04-05T09:32:54.695Z,5.67
2019-04-05T09:35:23.152Z,7.13
2019-04-05T09:37:51.435Z,11.77
2019-04-05T09:40:21.147Z,20.20
2019-04-05T09:42:49.632Z,6.57
2019-04-05T09:45:17.915Z,6.77
2019-04-05T09:47:46.158Z,5.90
2019-04-05T09:50:14.438Z,6.53
2019-04-05T09:52:42.714Z,5.27
2019-04-05T09:55:10.998Z,4.27
2019-04-05T09:57:39.244Z,4.37
2019-04-05T10:00:09.709Z,2.83
2019-04-05T10:02:46.236Z,3.57
2019-04-05T10:05:14.523Z,3.33
2019-04-05T10:07:54.100Z,4.27
2019-04-05T10:10:12.772Z,3.63
2019-04-05T10:12:41.015Z,3.50
2019-04-05T10:15:09.315Z,3.63
2019-04-05T10:17:37.584Z,3.83
2019-04-05T10:20:08.747Z,4.73
2019-04-05T10:22:37.001Z,3.30
2019-04-05T10:25:08.227Z,2.67
2019-04-05T10:27:36.499Z,3.17
2019-04-05T10:30:12.300Z,10.40
2019-04-05T10:32:40.566Z,2.63
2019-04-05T10:35:08.849Z,3.50
2019-04-05T10:37:37.860Z,2.97
2019-04-05T10:40:07.148Z,3.67
2019-04-05T10:42:36.438Z,5.40
2019-04-05T10:45:09.299Z,3.37
2019-04-05T10:47:37.542Z,3.53
2019-04-05T10:50:10.708Z,3.17
2019-04-05T10:52:38.967Z,3.17
2019-04-05T10:55:07.743Z,4.27
2019-04-05T10:57:36.029Z,3.70
2019-04-05T11:00:07.116Z,3.37
2019-04-05T11:02:35.359Z,3.07
2019-04-05T11:05:04.001Z,3.20
2019-04-05T11:07:34.923Z,9.13
2019-04-05T11:10:02.349Z,4.50
2019-04-05T11:12:30.598Z,3.73
2019-04-05T11:14:58.951Z,3.03
2019-04-05T11:17:27.227Z,4.70
2019-04-05T11:19:55.518Z,3.73
2019-04-05T11:22:23.810Z,3.72
2019-04-05T11:24:52.172Z,3.63
2019-04-05T11:27:20.691Z,3.05
2019-04-05T11:29:48.938Z,3.43
2019-04-05T11:32:17.225Z,3.70
2019-04-05T11:34:45.488Z,3.67
2019-04-05T11:37:13.770Z,7.87
2019-04-05T11:39:42.032Z,4.43
2019-04-05T11:42:10.427Z,3.00
2019-04-05T11:44:38.686Z,5.00
2019-04-05T11:47:06.962Z,4.63
2019-04-05T11:49:35.212Z,5.87
2019-04-05T11:52:03.512Z,4.37
2019-04-05T11:54:31.802Z,4.47
2019-04-05T11:57:00.088Z,4.37
2019-04-05T11:59:28.362Z,3.97
2019-04-05T12:01:58.391Z,4.60
2019-04-05T12:04:26.650Z,4.13
2019-04-05T12:06:54.993Z,3.77
2019-04-05T12:09:23.252Z,5.33
2019-04-05T12:11:51.534Z,4.17
2019-04-05T12:14:29.701Z,3.77
2019-04-05T12:16:49.777Z,4.63
2019-04-05T12:19:18.035Z,5.85
2019-04-05T12:21:46.456Z,6.17
2019-04-05T12:24:14.732Z,6.53
2019-04-05T12:26:43.074Z,4.97
2019-04-05T12:29:11.397Z,5.03
2019-04-05T12:31:39.686Z,5.70
2019-04-05T12:34:08.009Z,5.20
2019-04-05T12:36:36.285Z,3.80
2019-04-05T12:39:08.225Z,5.07
2019-04-05T12:41:40.400Z,4.93
2019-04-05T12:44:06.753Z,4.37
2019-04-05T12:46:35.118Z,3.77
2019-04-05T12:49:03.408Z,4.77
2019-04-05T12:51:31.684Z,4.93
2019-04-05T12:53:59.960Z,5.70
2019-04-05T12:56:28.246Z,5.53
2019-04-05T12:58:56.748Z,6.20
2019-04-05T13:01:25.119Z,4.80
2019-04-05T13:03:53.483Z,6.30
2019-04-05T13:06:22.714Z,4.80
2019-04-05T13:08:51.519Z,7.13
2019-04-05T13:11:19.928Z,5.25
2019-04-05T13:13:48.220Z,6.33
2019-04-05T13:16:16.480Z,5.07
2019-04-05T13:18:44.758Z,8.17
2019-04-05T13:21:15.685Z,5.67
2019-04-05T13:23:43.188Z,4.90
2019-04-05T13:26:12.411Z,5.60
2019-04-05T13:28:40.866Z,5.07
2019-04-05T13:31:09.238Z,4.73
2019-04-05T13:33:37.549Z,4.97
2019-04-05T13:36:08.318Z,7.43
2019-04-05T13:38:35.959Z,6.13
2019-04-05T13:41:04.269Z,4.87
2019-04-05T13:43:32.763Z,7.20
2019-04-05T13:46:06.935Z,6.93
2019-04-05T13:48:35.256Z,6.27
2019-04-05T13:51:03.516Z,8.50
2019-04-05T13:53:31.839Z,7.37
2019-04-05T13:56:00.217Z,7.57
2019-04-05T13:58:28.750Z,6.27
2019-04-05T14:00:57.026Z,5.77
2019-04-05T14:03:25.293Z,6.43
2019-04-05T14:05:55.258Z,7.03
2019-04-05T14:08:23.954Z,5.90
2019-04-05T14:10:52.207Z,6.13
2019-04-05T14:13:20.538Z,6.55
2019-04-05T14:15:48.812Z,6.47
2019-04-05T14:18:17.103Z,9.37
2019-04-05T14:20:45.436Z,7.47
2019-04-05T14:23:13.787Z,7.97
2019-04-05T14:25:42.115Z,7.77
2019-04-05T14:28:10.409Z,9.13
2019-04-05T14:30:38.692Z,8.43
2019-04-05T14:33:06.996Z,8.20
2019-04-05T14:35:35.269Z,9.20
2019-04-05T14:38:03.599Z,8.43
2019-04-05T14:40:33.141Z,7.77
2019-04-05T14:43:01.495Z,6.55
2019-04-05T14:45:29.782Z,6.47
2019-04-05T14:47:58.630Z,5.97
2019-04-05T14:50:28.216Z,8.28
2019-04-05T14:53:00.786Z,7.70
2019-04-05T14:55:27.629Z,7.73
2019-04-05T14:57:57.324Z,6.60
2019-04-05T15:00:25.628Z,9.40
2019-04-05T15:02:53.892Z,9.13
2019-04-05T15:05:22.223Z,7.73
2019-04-05T15:07:51.168Z,8.37
2019-04-05T15:10:20.109Z,7.10
2019-04-05T15:12:48.398Z,9.57
2019-04-05T15:15:16.698Z,8.93
2019-04-05T15:17:48.173Z,11.63
2019-04-05T15:20:15.327Z,9.27
2019-04-05T15:22:43.597Z,8.77
2019-04-05T15:25:11.981Z,8.27
2019-04-05T15:27:40.388Z,8.97
2019-04-05T15:30:08.715Z,11.57
2019-04-05T15:32:37.848Z,9.93
2019-04-05T15:35:07.851Z,9.55
2019-04-05T15:37:37.729Z,8.98
2019-04-05T15:40:07.646Z,9.63
2019-04-05T15:42:35.997Z,7.93
2019-04-05T15:45:06.722Z,8.93
2019-04-05T15:47:35.020Z,8.50
2019-04-05T15:50:03.547Z,10.03
2019-04-05T15:52:32.187Z,9.50
2019-04-05T15:55:01.751Z,9.97
2019-04-05T15:57:33.459Z,10.70
2019-04-05T16:00:03.683Z,10.00
2019-04-05T16:02:33.009Z,9.10
2019-04-05T16:05:00.548Z,9.37
2019-04-05T16:07:28.823Z,10.63
2019-04-05T16:09:57.669Z,10.13
2019-04-05T16:12:26.081Z,12.60
2019-04-05T16:14:54.371Z,8.90
2019-04-05T16:17:22.806Z,10.30
2019-04-05T16:19:51.103Z,10.57
2019-04-05T16:22:30.785Z,11.03
2019-04-05T16:24:49.398Z,9.40
2019-04-05T16:27:17.687Z,12.53
2019-04-05T16:29:45.951Z,10.13
2019-04-05T16:32:14.937Z,11.00
2019-04-05T16:34:43.190Z,9.55
2019-04-05T16:37:11.481Z,11.40
2019-04-05T16:39:39.746Z,12.50
2019-04-05T16:42:10.178Z,13.57
2019-04-05T16:44:38.019Z,12.53
2019-04-05T16:47:06.386Z,10.97
2019-04-05T16:49:34.715Z,10.73
2019-04-05T16:52:03.008Z,12.60
2019-04-05T16:54:31.270Z,14.43
2019-04-05T16:56:59.550Z,11.67
2019-04-05T16:59:27.871Z,10.50
2019-04-05T17:01:56.869Z,17.00
2019-04-05T17:04:25.237Z,13.90
2019-04-05T17:06:53.497Z,12.27
2019-04-05T17:09:21.761Z,13.23
2019-04-05T17:11:50.027Z,14.17
2019-04-05T17:14:19.246Z,12.43
2019-04-05T17:16:47.531Z,15.53
2019-04-05T17:19:15.799Z,15.17
2019-04-05T17:21:44.060Z,14.63
2019-04-05T17:24:12.349Z,11.30
2019-04-05T17:26:40.620Z,12.00
2019-04-05T17:29:09.464Z,12.07
2019-04-05T17:31:37.722Z,10.85
2019-04-05T17:34:05.992Z,9.63
2019-04-05T17:36:34.249Z,10.97
2019-04-05T17:39:02.535Z,9.10
2019-04-05T17:41:30.864Z,12.40
2019-04-05T17:43:59.265Z,9.10
2019-04-05T17:46:27.509Z,9.50
2019-04-05T17:48:55.788Z,10.23
2019-04-05T17:51:24.028Z,9.07
2019-04-05T17:53:52.417Z,12.23
2019-04-05T17:56:20.672Z,9.83
2019-04-05T17:58:49.610Z,10.83
2019-04-05T18:01:17.899Z,9.15
2019-04-05T18:03:46.193Z,10.67
2019-04-05T18:06:14.475Z,9.90
2019-04-05T18:08:48.577Z,9.43
2019-04-05T18:11:16.827Z,16.47
2019-04-05T18:13:45.098Z,9.73
2019-04-05T18:16:13.379Z,10.13
2019-04-05T18:18:41.743Z,10.23
2019-04-05T18:21:09.991Z,9.23
2019-04-05T18:23:38.308Z,13.03
2019-04-05T18:26:06.578Z,11.83
2019-04-05T18:28:35.988Z,10.73
2019-04-05T18:31:05.871Z,11.63
2019-04-05T18:33:34.101Z,12.50
2019-04-05T18:36:02.349Z,19.63
2019-04-05T18:38:30.606Z,16.70
2019-04-05T18:40:58.983Z,34.30
2019-04-05T18:43:27.233Z,20.33
2019-04-05T18:45:55.578Z,20.27
2019-04-05T18:48:24.409Z,19.20
2019-04-05T18:50:52.701Z,16.67
2019-04-05T18:53:21.032Z,20.57
2019-04-05T18:55:49.333Z,13.00
2019-04-05T18:58:17.601Z,88.03
2019-04-05T19:00:45.939Z,14.63
2019-04-05T19:03:14.188Z,22.17
2019-04-05T19:05:42.503Z,26.33
2019-04-05T19:08:10.840Z,21.93
2019-04-05T19:10:39.137Z,14.53
2019-04-05T19:13:07.402Z,13.57
2019-04-05T19:15:35.672Z,13.47
2019-04-05T19:18:03.926Z,12.90
2019-04-05T19:20:32.200Z,11.73
2019-04-05T19:23:00.455Z,13.97
2019-04-05T19:25:28.766Z,15.47
2019-04-05T19:27:57.026Z,14.33
2019-04-05T19:50:25.352Z,14.40
2019-04-05T19:52:53.607Z,15.53
2019-04-05T19:55:21.960Z,19.40
2019-04-05T19:57:50.220Z,17.47
2019-04-05T20:00:19.176Z,14.83
2019-04-05T20:02:47.450Z,14.25
2019-04-05T20:05:15.730Z,16.87
2019-04-05T20:07:43.992Z,16.23
2019-04-05T20:10:12.267Z,15.23
2019-04-05T20:12:40.526Z,16.37
2019-04-05T20:15:08.808Z,18.60
2019-04-05T20:17:37.060Z,17.23
2019-04-05T20:20:08.356Z,17.13
2019-04-05T20:22:36.645Z,17.17
2019-04-05T20:25:07.887Z,18.70
2019-04-05T20:27:36.174Z,16.17
2019-04-05T20:30:06.634Z,15.00
2019-04-05T20:32:34.974Z,15.40
2019-04-05T20:35:03.245Z,14.23
2019-04-05T20:37:31.519Z,14.00
2019-04-05T20:39:59.844Z,13.33
2019-04-05T20:42:28.202Z,13.73
2019-04-05T20:44:56.451Z,14.00
2019-04-05T20:47:24.725Z,16.30
2019-04-05T20:50:01.910Z,15.47
2019-04-05T20:52:30.164Z,14.10
2019-04-05T20:54:58.425Z,16.47
2019-04-05T20:57:26.731Z,13.93
2019-04-05T20:59:55.060Z,14.80
2019-04-05T21:02:23.414Z,14.73
2019-04-05T21:04:51.669Z,13.47
2019-04-05T21:07:19.938Z,14.00
2019-04-05T21:09:48.589Z,14.27
2019-04-05T21:12:16.886Z,14.27
2019-04-05T21:14:45.151Z,16.10
2019-04-05T21:17:13.421Z,15.47
2019-04-05T21:19:41.673Z,13.97
2019-04-05T21:22:10.031Z,15.37
2019-04-05T21:24:38.285Z,13.70
2019-04-05T21:27:06.558Z,14.67
2019-04-05T21:29:34.812Z,14.47
2019-04-05T21:32:03.167Z,16.67
2019-04-05T21:34:31.494Z,16.50
2019-04-05T21:36:59.778Z,16.70
2019-04-05T21:39:28.864Z,15.93
2019-04-05T21:41:57.129Z,16.65
2019-04-05T21:44:25.393Z,20.87
2019-04-05T21:46:53.668Z,16.07
2019-04-05T21:49:21.932Z,16.67
2019-04-05T21:51:50.212Z,16.70
2019-04-05T21:54:18.461Z,16.23
2019-04-05T21:56:46.721Z,13.87
2019-04-05T21:59:15.013Z,17.07
2019-04-05T22:01:43.266Z,16.57
2019-04-05T22:04:11.550Z,15.50
2019-04-05T22:06:39.812Z,14.33
2019-04-05T22:09:12.317Z,16.27
2019-04-05T22:11:40.584Z,16.30
2019-04-05T22:14:08.858Z,14.60
2019-04-05T22:16:37.110Z,14.93
2019-04-05T22:19:05.449Z,13.30
2019-04-05T22:21:33.713Z,16.83
2019-04-05T22:24:01.986Z,15.37
2019-04-05T22:26:30.384Z,15.17
2019-04-05T22:28:58.657Z,16.23
2019-04-05T22:31:26.911Z,15.60
2019-04-05T22:33:55.227Z,18.60
2019-04-05T22:36:23.488Z,18.03
2019-04-05T22:38:51.759Z,17.10
2019-04-05T22:41:20.009Z,15.97
2019-04-05T22:43:48.297Z,17.37
2019-04-05T22:46:16.555Z,16.67
2019-04-05T22:48:44.836Z,14.30
2019-04-05T22:51:13.093Z,17.60
2019-04-05T22:53:41.370Z,18.47
2019-04-05T22:56:10.556Z,19.70
2019-04-05T22:58:38.837Z,21.00
2019-04-05T23:01:07.103Z,18.43
2019-04-05T23:03:35.385Z,17.13
2019-04-05T23:06:03.662Z,15.73
2019-04-05T23:08:31.949Z,16.90
2019-04-05T23:11:00.203Z,16.07
2019-04-05T23:13:28.486Z,17.40
2019-04-05T23:15:56.745Z,17.07
2019-04-05T23:18:25.032Z,17.23
2019-04-05T23:20:53.276Z,19.67
2019-04-05T23:23:21.553Z,17.13
2019-04-05T23:25:49.873Z,18.40
2019-04-05T23:28:18.149Z,19.37
2019-04-05T23:30:46.417Z,17.77
2019-04-05T23:33:14.689Z,20.40
2019-04-05T23:35:42.935Z,20.53
2019-04-05T23:38:11.219Z,16.93
2019-04-05T23:40:39.486Z,19.30
2019-04-05T23:43:07.761Z,17.90
2019-04-05T23:45:36.030Z,18.13
2019-04-05T23:48:04.278Z,18.07
2019-04-05T23:50:32.572Z,17.83
2019-04-05T23:53:00.827Z,18.60
2019-04-05T23:55:33.449Z,20.00
2019-04-05T23:57:59.730Z,16.30
